sensor_id;sensor_type;location;lat;lon;timestamp;temperature;humidity
63976;DHT22;50167;47.958;21.780;2023-09-18T00:01:00;24.94;60.19
63976;DHT22;50167;47.958;21.780;2023-09-18T00:03:27;25.04;59.73
63976;DHT22;50167;47.958;21.780;2023-09-18T00:05:53;25.08;59.51
63976;DHT22;50167;47.958;21.780;2023-09-18T00:08:20;24.64;59.28
63976;DHT22;50167;47.958;21.780;2023-09-18T00:10:50;23.67;61.23
63976;DHT22;50167;47.958;21.780;2023-09-18T00:13:17;22.82;63.50
63976;DHT22;50167;47.958;21.780;2023-09-18T00:15:44;22.98;65.17
63976;DHT22;50167;47.958;21.780;2023-09-18T00:18:16;23.77;63.61
63976;DHT22;50167;47.958;21.780;2023-09-18T00:20:43;24.19;62.20
63976;DHT22;50167;47.958;21.780;2023-09-18T00:23:12;24.43;61.37
63976;DHT22;50167;47.958;21.780;2023-09-18T00:25:38;24.54;60.85
63976;DHT22;50167;47.958;21.780;2023-09-18T00:28:06;24.61;60.42
63976;DHT22;50167;47.958;21.780;2023-09-18T00:30:33;24.63;60.31
63976;DHT22;50167;47.958;21.780;2023-09-18T00:32:59;24.71;59.79
63976;DHT22;50167;47.958;21.780;2023-09-18T00:38:48;23.88;59.77
63976;DHT22;50167;47.958;21.780;2023-09-18T00:41:15;22.93;61.82
63976;DHT22;50167;47.958;21.780;2023-09-18T00:43:41;22.13;64.14
63976;DHT22;50167;47.958;21.780;2023-09-18T00:46:08;22.38;66.11
63976;DHT22;50167;47.958;21.780;2023-09-18T00:48:34;23.13;64.43
63976;DHT22;50167;47.958;21.780;2023-09-18T00:51:02;23.54;63.06
63976;DHT22;50167;47.958;21.780;2023-09-18T00:53:28;23.80;62.24
63976;DHT22;50167;47.958;21.780;2023-09-18T00:55:57;23.94;61.82
63976;DHT22;50167;47.958;21.780;2023-09-18T00:58:24;24.09;61.53
63976;DHT22;50167;47.958;21.780;2023-09-18T01:00:51;24.23;61.03
63976;DHT22;50167;47.958;21.780;2023-09-18T01:03:21;24.36;60.44
63976;DHT22;50167;47.958;21.780;2023-09-18T01:05:48;24.56;59.82
63976;DHT22;50167;47.958;21.780;2023-09-18T01:08:15;24.71;59.42
63976;DHT22;50167;47.958;21.780;2023-09-18T01:10:48;24.30;59.05
63976;DHT22;50167;47.958;21.780;2023-09-18T01:13:21;23.30;61.06
63976;DHT22;50167;47.958;21.780;2023-09-18T01:16:12;22.45;63.32
63976;DHT22;50167;47.958;21.780;2023-09-18T01:18:34;22.71;64.99
63976;DHT22;50167;47.958;21.780;2023-09-18T01:21:01;23.44;63.52
63976;DHT22;50167;47.958;21.780;2023-09-18T01:23:27;23.85;62.27
63976;DHT22;50167;47.958;21.780;2023-09-18T01:25:53;24.09;61.38
63976;DHT22;50167;47.958;21.780;2023-09-18T01:28:20;24.25;60.95
63976;DHT22;50167;47.958;21.780;2023-09-18T01:30:46;24.38;60.66
63976;DHT22;50167;47.958;21.780;2023-09-18T01:33:14;24.50;59.91
63976;DHT22;50167;47.958;21.780;2023-09-18T01:35:42;24.59;59.68
63976;DHT22;50167;47.958;21.780;2023-09-18T01:38:09;24.67;59.44
63976;DHT22;50167;47.958;21.780;2023-09-18T01:40:37;24.22;59.36
63976;DHT22;50167;47.958;21.780;2023-09-18T01:43:04;23.27;60.95
63976;DHT22;50167;47.958;21.780;2023-09-18T01:45:30;22.45;62.84
63976;DHT22;50167;47.958;21.780;2023-09-18T01:47:56;22.57;64.70
63976;DHT22;50167;47.958;21.780;2023-09-18T01:50:23;23.23;63.48
63976;DHT22;50167;47.958;21.780;2023-09-18T01:52:49;23.68;62.46
63976;DHT22;50167;47.958;21.780;2023-09-18T01:55:16;24.02;61.50
63976;DHT22;50167;47.958;21.780;2023-09-18T01:57:43;24.23;60.77
63976;DHT22;50167;47.958;21.780;2023-09-18T02:00:11;24.39;60.25
63976;DHT22;50167;47.958;21.780;2023-09-18T02:02:38;24.49;59.82
63976;DHT22;50167;47.958;21.780;2023-09-18T02:05:05;24.59;59.33
63976;DHT22;50167;47.958;21.780;2023-09-18T02:07:31;24.13;58.96
63976;DHT22;50167;47.958;21.780;2023-09-18T02:09:58;23.13;61.07
63976;DHT22;50167;47.958;21.780;2023-09-18T02:12:24;22.31;63.22
63976;DHT22;50167;47.958;21.780;2023-09-18T02:14:50;22.38;65.03
63976;DHT22;50167;47.958;21.780;2023-09-18T02:17:17;23.20;63.75
63976;DHT22;50167;47.958;21.780;2023-09-18T02:19:43;23.62;61.95
63976;DHT22;50167;47.958;21.780;2023-09-18T02:22:10;23.73;61.31
63976;DHT22;50167;47.958;21.780;2023-09-18T02:24:36;23.81;61.13
63976;DHT22;50167;47.958;21.780;2023-09-18T02:27:06;23.87;61.01
63976;DHT22;50167;47.958;21.780;2023-09-18T02:29:33;24.06;60.46
63976;DHT22;50167;47.958;21.780;2023-09-18T02:31:59;24.20;59.73
63976;DHT22;50167;47.958;21.780;2023-09-18T02:34:26;24.35;59.31
63976;DHT22;50167;47.958;21.780;2023-09-18T02:36:52;23.94;58.42
63976;DHT22;50167;47.958;21.780;2023-09-18T02:39:18;22.95;60.47
63976;DHT22;50167;47.958;21.780;2023-09-18T02:41:45;22.13;62.73
63976;DHT22;50167;47.958;21.780;2023-09-18T02:44:11;22.17;64.54
63976;DHT22;50167;47.958;21.780;2023-09-18T02:46:39;22.89;63.30
63976;DHT22;50167;47.958;21.780;2023-09-18T02:49:05;23.26;62.05
63976;DHT22;50167;47.958;21.780;2023-09-18T02:51:33;23.58;61.05
63976;DHT22;50167;47.958;21.780;2023-09-18T02:54:00;23.85;60.22
63976;DHT22;50167;47.958;21.780;2023-09-18T02:56:26;23.92;60.09
63976;DHT22;50167;47.958;21.780;2023-09-18T02:58:53;24.08;59.78
63976;DHT22;50167;47.958;21.780;2023-09-18T03:01:19;24.17;59.25
63976;DHT22;50167;47.958;21.780;2023-09-18T03:03:45;23.68;58.79
63976;DHT22;50167;47.958;21.780;2023-09-18T03:06:12;22.62;61.28
63976;DHT22;50167;47.958;21.780;2023-09-18T03:08:39;21.70;63.71
63976;DHT22;50167;47.958;21.780;2023-09-18T03:11:12;21.89;65.77
63976;DHT22;50167;47.958;21.780;2023-09-18T03:13:44;22.76;64.12
63976;DHT22;50167;47.958;21.780;2023-09-18T03:16:12;23.25;62.49
63976;DHT22;50167;47.958;21.780;2023-09-18T03:18:39;23.47;61.47
63976;DHT22;50167;47.958;21.780;2023-09-18T03:21:05;23.64;60.81
63976;DHT22;50167;47.958;21.780;2023-09-18T03:23:32;23.78;60.26
63976;DHT22;50167;47.958;21.780;2023-09-18T03:25:58;23.88;59.85
63976;DHT22;50167;47.958;21.780;2023-09-18T03:28:25;23.95;59.38
63976;DHT22;50167;47.958;21.780;2023-09-18T03:30:52;23.50;59.20
63976;DHT22;50167;47.958;21.780;2023-09-18T03:33:20;22.47;61.21
63976;DHT22;50167;47.958;21.780;2023-09-18T03:35:49;21.58;63.58
63976;DHT22;50167;47.958;21.780;2023-09-18T03:38:16;21.79;65.45
63976;DHT22;50167;47.958;21.780;2023-09-18T03:40:43;22.64;63.55
63976;DHT22;50167;47.958;21.780;2023-09-18T03:43:10;23.10;61.79
63976;DHT22;50167;47.958;21.780;2023-09-18T03:45:38;23.36;60.89
63976;DHT22;50167;47.958;21.780;2023-09-18T03:48:06;23.56;60.20
63976;DHT22;50167;47.958;21.780;2023-09-18T03:50:34;23.67;59.70
63976;DHT22;50167;47.958;21.780;2023-09-18T03:53:00;23.78;59.04
63976;DHT22;50167;47.958;21.780;2023-09-18T03:55:27;23.27;58.76
63976;DHT22;50167;47.958;21.780;2023-09-18T03:57:53;22.25;60.74
63976;DHT22;50167;47.958;21.780;2023-09-18T04:00:22;21.40;62.85
63976;DHT22;50167;47.958;21.780;2023-09-18T04:02:49;21.44;64.91
63976;DHT22;50167;47.958;21.780;2023-09-18T04:05:15;22.19;63.97
63976;DHT22;50167;47.958;21.780;2023-09-18T04:07:41;22.72;62.71
63976;DHT22;50167;47.958;21.780;2023-09-18T04:10:09;23.09;61.06
63976;DHT22;50167;47.958;21.780;2023-09-18T04:12:36;23.26;60.19
63976;DHT22;50167;47.958;21.780;2023-09-18T04:15:03;23.37;59.83
63976;DHT22;50167;47.958;21.780;2023-09-18T04:17:30;23.40;59.73
63976;DHT22;50167;47.958;21.780;2023-09-18T04:19:56;23.39;59.91
63976;DHT22;50167;47.958;21.780;2023-09-18T04:22:22;23.58;59.60
63976;DHT22;50167;47.958;21.780;2023-09-18T04:24:49;23.25;59.11
63976;DHT22;50167;47.958;21.780;2023-09-18T04:27:15;22.27;61.02
63976;DHT22;50167;47.958;21.780;2023-09-18T04:29:42;21.44;63.20
63976;DHT22;50167;47.958;21.780;2023-09-18T04:32:08;21.70;65.19
63976;DHT22;50167;47.958;21.780;2023-09-18T04:34:34;22.52;63.75
63976;DHT22;50167;47.958;21.780;2023-09-18T04:37:01;23.05;62.32
63976;DHT22;50167;47.958;21.780;2023-09-18T04:39:29;23.34;61.56
63976;DHT22;50167;47.958;21.780;2023-09-18T04:41:56;23.58;60.94
63976;DHT22;50167;47.958;21.780;2023-09-18T04:44:31;23.75;60.61
63976;DHT22;50167;47.958;21.780;2023-09-18T04:46:57;23.89;60.13
63976;DHT22;50167;47.958;21.780;2023-09-18T04:49:24;24.01;59.79
63976;DHT22;50167;47.958;21.780;2023-09-18T04:51:51;24.11;59.73
63976;DHT22;50167;47.958;21.780;2023-09-18T04:54:17;24.22;59.49
63976;DHT22;50167;47.958;21.780;2023-09-18T04:56:43;24.33;59.24
63976;DHT22;50167;47.958;21.780;2023-09-18T04:59:09;23.80;59.30
63976;DHT22;50167;47.958;21.780;2023-09-18T05:01:35;22.91;61.20
63976;DHT22;50167;47.958;21.780;2023-09-18T05:04:02;22.13;63.07
63976;DHT22;50167;47.958;21.780;2023-09-18T05:06:28;22.33;65.49
63976;DHT22;50167;47.958;21.780;2023-09-18T05:08:55;23.09;63.94
63976;DHT22;50167;47.958;21.780;2023-09-18T05:11:21;23.56;62.59
63976;DHT22;50167;47.958;21.780;2023-09-18T05:13:47;23.91;61.29
63976;DHT22;50167;47.958;21.780;2023-09-18T05:16:16;24.08;60.74
63976;DHT22;50167;47.958;21.780;2023-09-18T05:18:43;24.23;60.41
63976;DHT22;50167;47.958;21.780;2023-09-18T05:21:10;24.43;60.09
63976;DHT22;50167;47.958;21.780;2023-09-18T05:23:37;24.64;59.28
63976;DHT22;50167;47.958;21.780;2023-09-18T05:26:03;24.19;59.06
63976;DHT22;50167;47.958;21.780;2023-09-18T05:28:29;23.27;61.28
63976;DHT22;50167;47.958;21.780;2023-09-18T05:30:55;22.50;63.40
63976;DHT22;50167;47.958;21.780;2023-09-18T05:37:21;23.77;62.89
63976;DHT22;50167;47.958;21.780;2023-09-18T05:39:48;24.22;61.44
63976;DHT22;50167;47.958;21.780;2023-09-18T05:42:14;24.53;60.52
63976;DHT22;50167;47.958;21.780;2023-09-18T05:44:41;24.78;59.86
63976;DHT22;50167;47.958;21.780;2023-09-18T05:47:07;25.01;58.89
63976;DHT22;50167;47.958;21.780;2023-09-18T05:49:34;24.57;58.38
63976;DHT22;50167;47.958;21.780;2023-09-18T05:52:01;23.64;60.47
63976;DHT22;50167;47.958;21.780;2023-09-18T05:54:28;22.85;62.46
63976;DHT22;50167;47.958;21.780;2023-09-18T05:56:54;23.07;64.11
63976;DHT22;50167;47.958;21.780;2023-09-18T05:59:20;23.89;62.37
63976;DHT22;50167;47.958;21.780;2023-09-18T06:01:46;24.49;60.52
63976;DHT22;50167;47.958;21.780;2023-09-18T06:04:14;24.75;59.60
63976;DHT22;50167;47.958;21.780;2023-09-18T06:06:42;25.02;59.11
63976;DHT22;50167;47.958;21.780;2023-09-18T06:09:08;24.67;58.29
63976;DHT22;50167;47.958;21.780;2023-09-18T06:11:35;23.83;60.43
63976;DHT22;50167;47.958;21.780;2023-09-18T06:14:03;23.19;62.28
63976;DHT22;50167;47.958;21.780;2023-09-18T06:16:30;23.53;63.14
63976;DHT22;50167;47.958;21.780;2023-09-18T06:18:57;24.43;61.12
63976;DHT22;50167;47.958;21.780;2023-09-18T06:21:23;25.00;59.63
63976;DHT22;50167;47.958;21.780;2023-09-18T06:23:58;24.82;58.36
63976;DHT22;50167;47.958;21.780;2023-09-18T06:26:24;24.05;59.67
63976;DHT22;50167;47.958;21.780;2023-09-18T06:28:50;23.33;61.32
63976;DHT22;50167;47.958;21.780;2023-09-18T06:31:18;22.79;63.20
63976;DHT22;50167;47.958;21.780;2023-09-18T06:33:44;23.10;64.19
63976;DHT22;50167;47.958;21.780;2023-09-18T06:36:16;23.94;63.00
63976;DHT22;50167;47.958;21.780;2023-09-18T06:38:42;24.77;61.50
63976;DHT22;50167;47.958;21.780;2023-09-18T06:41:12;25.45;59.53
63976;DHT22;50167;47.958;21.780;2023-09-18T06:43:39;25.45;58.16
63976;DHT22;50167;47.958;21.780;2023-09-18T06:46:07;24.81;59.11
63976;DHT22;50167;47.958;21.780;2023-09-18T06:48:34;24.35;60.14
63976;DHT22;50167;47.958;21.780;2023-09-18T06:51:05;24.04;61.33
63976;DHT22;50167;47.958;21.780;2023-09-18T06:53:32;23.83;61.90
63976;DHT22;50167;47.958;21.780;2023-09-18T06:55:59;23.62;62.20
63976;DHT22;50167;47.958;21.780;2023-09-18T06:58:26;23.51;63.06
63976;DHT22;50167;47.958;21.780;2023-09-18T07:00:54;24.38;62.93
63976;DHT22;50167;47.958;21.780;2023-09-18T07:03:22;25.67;59.23
63976;DHT22;50167;47.958;21.780;2023-09-18T07:05:49;25.97;56.56
63976;DHT22;50167;47.958;21.780;2023-09-18T07:08:15;25.43;57.22
63976;DHT22;50167;47.958;21.780;2023-09-18T07:10:45;24.98;58.28
63976;DHT22;50167;47.958;21.780;2023-09-18T07:13:13;24.59;59.22
63976;DHT22;50167;47.958;21.780;2023-09-18T07:15:39;24.30;58.93
63976;DHT22;50167;47.958;21.780;2023-09-18T07:18:07;24.13;58.79
63976;DHT22;50167;47.958;21.780;2023-09-18T07:20:35;23.98;59.48
63976;DHT22;50167;47.958;21.780;2023-09-18T07:23:02;23.88;60.31
63976;DHT22;50167;47.958;21.780;2023-09-18T07:25:28;23.77;60.12
63976;DHT22;50167;47.958;21.780;2023-09-18T07:27:57;23.68;59.58
63976;DHT22;50167;47.958;21.780;2023-09-18T07:30:23;23.56;60.16
63976;DHT22;50167;47.958;21.780;2023-09-18T07:32:52;23.44;61.08
63976;DHT22;50167;47.958;21.780;2023-09-18T07:35:18;23.41;61.88
63976;DHT22;50167;47.958;21.780;2023-09-18T07:37:47;23.34;62.12
63976;DHT22;50167;47.958;21.780;2023-09-18T07:40:13;23.30;62.34
63976;DHT22;50167;47.958;21.780;2023-09-18T07:42:41;24.12;62.69
63976;DHT22;50167;47.958;21.780;2023-09-18T07:45:11;25.55;58.93
63976;DHT22;50167;47.958;21.780;2023-09-18T07:47:38;25.87;55.65
63976;DHT22;50167;47.958;21.780;2023-09-18T07:50:07;25.33;55.57
63976;DHT22;50167;47.958;21.780;2023-09-18T07:52:35;24.92;57.47
63976;DHT22;50167;47.958;21.780;2023-09-18T07:55:01;24.80;57.45
63976;DHT22;50167;47.958;21.780;2023-09-18T07:57:30;24.78;56.62
63976;DHT22;50167;47.958;21.780;2023-09-18T07:59:58;24.75;57.73
63976;DHT22;50167;47.958;21.780;2023-09-18T08:02:25;24.82;56.88
63976;DHT22;50167;47.958;21.780;2023-09-18T08:04:55;24.88;56.76
63976;DHT22;50167;47.958;21.780;2023-09-18T08:07:25;24.90;56.41
63976;DHT22;50167;47.958;21.780;2023-09-18T08:09:54;24.92;56.56
63976;DHT22;50167;47.958;21.780;2023-09-18T08:12:23;24.97;56.91
63976;DHT22;50167;47.958;21.780;2023-09-18T08:14:53;25.04;56.48
63976;DHT22;50167;47.958;21.780;2023-09-18T08:17:19;25.15;55.22
63976;DHT22;50167;47.958;21.780;2023-09-18T08:19:46;25.14;55.36
63976;DHT22;50167;47.958;21.780;2023-09-18T08:22:17;25.07;54.73
63976;DHT22;50167;47.958;21.780;2023-09-18T08:24:47;24.97;53.96
63976;DHT22;50167;47.958;21.780;2023-09-18T08:27:17;24.97;55.64
63976;DHT22;50167;47.958;21.780;2023-09-18T08:29:48;25.01;54.28
63976;DHT22;50167;47.958;21.780;2023-09-18T08:32:15;25.04;54.45
63976;DHT22;50167;47.958;21.780;2023-09-18T08:34:42;25.05;55.29
63976;DHT22;50167;47.958;21.780;2023-09-18T08:37:09;25.18;55.53
63976;DHT22;50167;47.958;21.780;2023-09-18T08:39:35;25.30;55.59
63976;DHT22;50167;47.958;21.780;2023-09-18T08:42:05;25.42;55.95
63976;DHT22;50167;47.958;21.780;2023-09-18T08:44:33;25.53;55.63
63976;DHT22;50167;47.958;21.780;2023-09-18T08:47:01;25.67;55.38
63976;DHT22;50167;47.958;21.780;2023-09-18T08:49:29;25.77;54.49
63976;DHT22;50167;47.958;21.780;2023-09-18T08:51:56;25.87;55.14
63976;DHT22;50167;47.958;21.780;2023-09-18T08:54:23;25.94;55.81
63976;DHT22;50167;47.958;21.780;2023-09-18T08:56:53;26.05;55.40
63976;DHT22;50167;47.958;21.780;2023-09-18T08:59:21;26.17;55.48
63976;DHT22;50167;47.958;21.780;2023-09-18T09:01:48;26.30;54.34
63976;DHT22;50167;47.958;21.780;2023-09-18T09:04:14;26.39;54.81
63976;DHT22;50167;47.958;21.780;2023-09-18T09:06:41;26.52;53.22
63976;DHT22;50167;47.958;21.780;2023-09-18T09:09:07;26.59;53.36
63976;DHT22;50167;47.958;21.780;2023-09-18T09:11:34;26.62;52.81
63976;DHT22;50167;47.958;21.780;2023-09-18T09:14:14;26.70;52.66
63976;DHT22;50167;47.958;21.780;2023-09-18T09:16:51;26.79;52.31
63976;DHT22;50167;47.958;21.780;2023-09-18T09:19:18;26.82;52.58
63976;DHT22;50167;47.958;21.780;2023-09-18T09:21:45;26.85;51.16
63976;DHT22;50167;47.958;21.780;2023-09-18T09:24:12;26.91;52.23
63976;DHT22;50167;47.958;21.780;2023-09-18T09:26:41;26.99;51.04
63976;DHT22;50167;47.958;21.780;2023-09-18T09:29:17;27.01;50.60
63976;DHT22;50167;47.958;21.780;2023-09-18T09:31:45;27.09;51.00
63976;DHT22;50167;47.958;21.780;2023-09-18T09:34:12;27.17;50.42
63976;DHT22;50167;47.958;21.780;2023-09-18T09:36:54;27.27;50.40
63976;DHT22;50167;47.958;21.780;2023-09-18T09:39:21;27.35;50.13
63976;DHT22;50167;47.958;21.780;2023-09-18T09:41:49;27.42;50.15
63976;DHT22;50167;47.958;21.780;2023-09-18T09:44:16;27.49;49.92
63976;DHT22;50167;47.958;21.780;2023-09-18T09:46:49;27.57;49.47
63976;DHT22;50167;47.958;21.780;2023-09-18T09:49:17;27.68;49.98
63976;DHT22;50167;47.958;21.780;2023-09-18T09:51:46;27.82;50.15
63976;DHT22;50167;47.958;21.780;2023-09-18T09:54:12;27.90;49.89
63976;DHT22;50167;47.958;21.780;2023-09-18T09:56:46;28.00;49.02
63976;DHT22;50167;47.958;21.780;2023-09-18T09:59:14;28.09;48.18
63976;DHT22;50167;47.958;21.780;2023-09-18T10:01:41;28.13;47.96
63976;DHT22;50167;47.958;21.780;2023-09-18T10:04:14;28.23;48.45
63976;DHT22;50167;47.958;21.780;2023-09-18T10:06:51;28.31;48.36
63976;DHT22;50167;47.958;21.780;2023-09-18T10:09:16;28.41;47.43
63976;DHT22;50167;47.958;21.780;2023-09-18T10:11:45;28.43;47.29
63976;DHT22;50167;47.958;21.780;2023-09-18T10:14:20;28.45;46.37
63976;DHT22;50167;47.958;21.780;2023-09-18T10:16:51;28.48;46.53
63976;DHT22;50167;47.958;21.780;2023-09-18T10:22:24;28.62;46.30
63976;DHT22;50167;47.958;21.780;2023-09-18T10:24:50;28.74;45.82
63976;DHT22;50167;47.958;21.780;2023-09-18T10:27:19;28.81;46.43
63976;DHT22;50167;47.958;21.780;2023-09-18T10:29:49;28.86;46.11
63976;DHT22;50167;47.958;21.780;2023-09-18T10:32:17;28.99;46.04
63976;DHT22;50167;47.958;21.780;2023-09-18T10:34:47;29.03;46.00
63976;DHT22;50167;47.958;21.780;2023-09-18T10:37:15;29.05;45.38
63976;DHT22;50167;47.958;21.780;2023-09-18T10:39:42;29.03;46.33
63976;DHT22;50167;47.958;21.780;2023-09-18T10:42:12;28.99;45.49
63976;DHT22;50167;47.958;21.780;2023-09-18T10:44:38;29.00;45.29
63976;DHT22;50167;47.958;21.780;2023-09-18T10:47:10;29.06;44.61
63976;DHT22;50167;47.958;21.780;2023-09-18T10:49:37;29.07;45.64
63976;DHT22;50167;47.958;21.780;2023-09-18T10:52:05;29.13;45.11
63976;DHT22;50167;47.958;21.780;2023-09-18T10:54:31;29.23;45.01
63976;DHT22;50167;47.958;21.780;2023-09-18T10:56:59;29.32;45.53
63976;DHT22;50167;47.958;21.780;2023-09-18T10:59:25;29.48;44.76
63976;DHT22;50167;47.958;21.780;2023-09-18T11:01:53;29.61;44.66
63976;DHT22;50167;47.958;21.780;2023-09-18T11:04:20;29.69;44.56
63976;DHT22;50167;47.958;21.780;2023-09-18T11:09:31;29.81;45.16
63976;DHT22;50167;47.958;21.780;2023-09-18T11:12:03;29.95;44.19
63976;DHT22;50167;47.958;21.780;2023-09-18T11:14:48;30.05;43.60
63976;DHT22;50167;47.958;21.780;2023-09-18T11:25:42;29.91;44.32
63976;DHT22;50167;47.958;21.780;2023-09-18T11:28:22;30.01;43.93
63976;DHT22;50167;47.958;21.780;2023-09-18T11:30:52;30.12;43.16
63976;DHT22;50167;47.958;21.780;2023-09-18T11:33:41;30.29;43.80
63976;DHT22;50167;47.958;21.780;2023-09-18T11:36:29;30.46;41.55
63976;DHT22;50167;47.958;21.780;2023-09-18T11:38:58;30.43;43.18
63976;DHT22;50167;47.958;21.780;2023-09-18T11:41:33;30.36;42.92
63976;DHT22;50167;47.958;21.780;2023-09-18T11:46:48;30.33;42.11
63976;DHT22;50167;47.958;21.780;2023-09-18T11:49:22;30.08;42.52
63976;DHT22;50167;47.958;21.780;2023-09-18T11:51:50;29.83;43.09
63976;DHT22;50167;47.958;21.780;2023-09-18T11:54:18;29.50;42.73
63976;DHT22;50167;47.958;21.780;2023-09-18T11:56:44;29.27;44.14
63976;DHT22;50167;47.958;21.780;2023-09-18T11:59:11;29.17;44.42
63976;DHT22;50167;47.958;21.780;2023-09-18T12:01:38;29.19;44.36
63976;DHT22;50167;47.958;21.780;2023-09-18T12:04:07;29.27;44.73
63976;DHT22;50167;47.958;21.780;2023-09-18T12:06:40;29.20;44.44
63976;DHT22;50167;47.958;21.780;2023-09-18T12:09:07;29.27;44.77
63976;DHT22;50167;47.958;21.780;2023-09-18T12:11:34;29.34;44.23
63976;DHT22;50167;47.958;21.780;2023-09-18T12:14:02;29.27;43.80
63976;DHT22;50167;47.958;21.780;2023-09-18T12:16:37;29.19;43.82
63976;DHT22;50167;47.958;21.780;2023-09-18T12:18:59;29.13;44.42
63976;DHT22;50167;47.958;21.780;2023-09-18T12:21:27;29.27;44.37
63976;DHT22;50167;47.958;21.780;2023-09-18T12:23:53;29.85;43.23
63976;DHT22;50167;47.958;21.780;2023-09-18T12:26:20;30.23;42.97
63976;DHT22;50167;47.958;21.780;2023-09-18T12:28:46;30.57;42.09
63976;DHT22;50167;47.958;21.780;2023-09-18T12:31:14;30.95;42.00
63976;DHT22;50167;47.958;21.780;2023-09-18T12:33:42;31.19;41.30
63976;DHT22;50167;47.958;21.780;2023-09-18T12:36:19;31.02;41.15
63976;DHT22;50167;47.958;21.780;2023-09-18T12:38:57;30.94;41.12
63976;DHT22;50167;47.958;21.780;2023-09-18T12:41:26;31.02;41.15
63976;DHT22;50167;47.958;21.780;2023-09-18T12:43:53;30.91;41.51
63976;DHT22;50167;47.958;21.780;2023-09-18T12:46:20;30.73;41.26
63976;DHT22;50167;47.958;21.780;2023-09-18T12:48:48;30.49;41.57
63976;DHT22;50167;47.958;21.780;2023-09-18T12:51:14;30.13;41.76
63976;DHT22;50167;47.958;21.780;2023-09-18T12:53:42;30.01;42.18
63976;DHT22;50167;47.958;21.780;2023-09-18T12:56:12;29.88;42.59
63976;DHT22;50167;47.958;21.780;2023-09-18T12:58:40;29.67;42.84
63976;DHT22;50167;47.958;21.780;2023-09-18T13:01:10;29.47;43.31
63976;DHT22;50167;47.958;21.780;2023-09-18T13:03:45;29.27;43.54
63976;DHT22;50167;47.958;21.780;2023-09-18T13:06:19;29.30;44.27
63976;DHT22;50167;47.958;21.780;2023-09-18T13:08:47;29.74;43.20
63976;DHT22;50167;47.958;21.780;2023-09-18T13:11:14;29.95;42.35
63976;DHT22;50167;47.958;21.780;2023-09-18T13:13:43;29.85;42.77
63976;DHT22;50167;47.958;21.780;2023-09-18T13:16:12;29.68;42.67
63976;DHT22;50167;47.958;21.780;2023-09-18T13:18:39;29.51;43.50
63976;DHT22;50167;47.958;21.780;2023-09-18T13:21:13;29.38;43.13
63976;DHT22;50167;47.958;21.780;2023-09-18T13:23:39;29.40;43.55
63976;DHT22;50167;47.958;21.780;2023-09-18T13:26:07;29.79;42.59
63976;DHT22;50167;47.958;21.780;2023-09-18T13:28:35;30.15;42.21
63976;DHT22;50167;47.958;21.780;2023-09-18T13:31:03;30.23;41.54
63976;DHT22;50167;47.958;21.780;2023-09-18T13:33:38;30.15;42.20
63976;DHT22;50167;47.958;21.780;2023-09-18T13:36:06;30.06;42.90
63976;DHT22;50167;47.958;21.780;2023-09-18T13:38:32;30.08;42.11
63976;DHT22;50167;47.958;21.780;2023-09-18T13:40:58;30.22;42.30
63976;DHT22;50167;47.958;21.780;2023-09-18T13:43:25;30.97;41.90
63976;DHT22;50167;47.958;21.780;2023-09-18T13:45:53;31.87;40.15
63976;DHT22;50167;47.958;21.780;2023-09-18T13:48:20;32.34;38.75
63976;DHT22;50167;47.958;21.780;2023-09-18T13:50:48;32.45;38.64
63976;DHT22;50167;47.958;21.780;2023-09-18T13:53:17;32.59;38.36
63976;DHT22;50167;47.958;21.780;2023-09-18T13:55:43;32.43;38.55
63976;DHT22;50167;47.958;21.780;2023-09-18T13:58:10;32.20;39.16
63976;DHT22;50167;47.958;21.780;2023-09-18T14:00:36;31.81;39.48
63976;DHT22;50167;47.958;21.780;2023-09-18T14:03:03;31.53;39.84
63976;DHT22;50167;47.958;21.780;2023-09-18T14:05:30;31.43;39.59
63976;DHT22;50167;47.958;21.780;2023-09-18T14:07:57;31.25;39.49
63976;DHT22;50167;47.958;21.780;2023-09-18T14:10:26;31.08;39.85
63976;DHT22;50167;47.958;21.780;2023-09-18T14:12:53;31.63;39.60
63976;DHT22;50167;47.958;21.780;2023-09-18T14:15:19;32.54;38.01
63976;DHT22;50167;47.958;21.780;2023-09-18T14:17:47;33.47;36.91
63976;DHT22;50167;47.958;21.780;2023-09-18T14:20:14;34.33;35.59
63976;DHT22;50167;47.958;21.780;2023-09-18T14:22:41;35.16;33.99
63976;DHT22;50167;47.958;21.780;2023-09-18T14:25:07;35.89;33.57
63976;DHT22;50167;47.958;21.780;2023-09-18T14:27:35;36.20;31.91
63976;DHT22;50167;47.958;21.780;2023-09-18T14:30:03;36.04;32.12
63976;DHT22;50167;47.958;21.780;2023-09-18T14:32:32;35.90;32.30
63976;DHT22;50167;47.958;21.780;2023-09-18T14:34:58;35.41;32.54
63976;DHT22;50167;47.958;21.780;2023-09-18T14:37:26;34.77;34.00
63976;DHT22;50167;47.958;21.780;2023-09-18T14:39:52;34.22;34.96
63976;DHT22;50167;47.958;21.780;2023-09-18T14:42:18;33.67;35.52
63976;DHT22;50167;47.958;21.780;2023-09-18T14:44:45;33.28;36.04
63976;DHT22;50167;47.958;21.780;2023-09-18T14:47:12;32.95;36.53
63976;DHT22;50167;47.958;21.780;2023-09-18T14:49:38;32.75;37.36
63976;DHT22;50167;47.958;21.780;2023-09-18T14:52:05;32.52;37.36
63976;DHT22;50167;47.958;21.780;2023-09-18T14:54:32;32.30;37.87
63976;DHT22;50167;47.958;21.780;2023-09-18T14:56:59;32.06;38.17
63976;DHT22;50167;47.958;21.780;2023-09-18T14:59:27;31.73;38.74
63976;DHT22;50167;47.958;21.780;2023-09-18T15:01:53;31.29;39.36
63976;DHT22;50167;47.958;21.780;2023-09-18T15:04:20;30.81;40.64
63976;DHT22;50167;47.958;21.780;2023-09-18T15:06:48;30.37;41.41
63976;DHT22;50167;47.958;21.780;2023-09-18T15:09:14;29.99;42.26
63976;DHT22;50167;47.958;21.780;2023-09-18T15:11:40;29.67;43.18
63976;DHT22;50167;47.958;21.780;2023-09-18T15:14:07;29.36;44.06
63976;DHT22;50167;47.958;21.780;2023-09-18T15:16:40;29.05;44.57
63976;DHT22;50167;47.958;21.780;2023-09-18T15:19:04;28.75;45.03
63976;DHT22;50167;47.958;21.780;2023-09-18T15:21:32;28.48;45.79
63976;DHT22;50167;47.958;21.780;2023-09-18T15:23:58;28.27;46.72
63976;DHT22;50167;47.958;21.780;2023-09-18T15:26:29;28.09;47.38
63976;DHT22;50167;47.958;21.780;2023-09-18T15:28:56;27.96;47.84
63976;DHT22;50167;47.958;21.780;2023-09-18T15:31:22;27.82;48.23
63976;DHT22;50167;47.958;21.780;2023-09-18T15:33:48;27.73;48.41
63976;DHT22;50167;47.958;21.780;2023-09-18T15:36:15;27.65;49.11
63976;DHT22;50167;47.958;21.780;2023-09-18T15:38:41;27.57;49.00
63976;DHT22;50167;47.958;21.780;2023-09-18T15:41:07;27.52;48.76
63976;DHT22;50167;47.958;21.780;2023-09-18T15:43:33;27.41;49.00